Blue Springs, Mississippi
Current Conditions -  °F | °C
As of 5:53 AM on Monday 20 Oct 2014 (Local Time) from KTUP Reporting Station
Clear Clear  
Wind Chill: 44°   Ceiling: Unl
Heat Index: 44°   Visibility: 10mi
Dew Point: 42°   Wind: 3mph
Humidity: 93%   Direction: 40°NE
Pressure: 30.08"   Gusts: NA
Location:  34.4°N, 88.87°W
Report Text: KTUP 201053Z 04003KT 10SM CLR 07/06 A3008 RMK AO2 SLP185 T00670056 $
Loading
Personal Weather Stations






























Interactive Weather Map
Tropical Storm Tracking
New forecast layout! Learn more

10-Day Weather Forecast

Advertisements
Track Severe Weather on mobile